sensor_id;sensor_type;location;lat;lon;timestamp;temperature;humidity
7688;DHT22;30781;48.154;11.554;2022-10-16T00:01:55;14.70;99.90
7688;DHT22;30781;48.154;11.554;2022-10-16T00:04:25;14.70;99.90
7688;DHT22;30781;48.154;11.554;2022-10-16T00:06:53;14.60;99.90
7688;DHT22;30781;48.154;11.554;2022-10-16T00:09:20;14.60;99.90
7688;DHT22;30781;48.154;11.554;2022-10-16T00:11:47;14.60;99.90
7688;DHT22;30781;48.154;11.554;2022-10-16T00:14:15;14.50;99.90
7688;DHT22;30781;48.154;11.554;2022-10-16T00:16:45;14.50;99.90
7688;DHT22;30781;48.154;11.554;2022-10-16T00:19:15;14.50;99.90
7688;DHT22;30781;48.154;11.554;2022-10-16T00:21:48;14.50;99.90
7688;DHT22;30781;48.154;11.554;2022-10-16T00:24:15;14.50;99.90
7688;DHT22;30781;48.154;11.554;2022-10-16T00:26:43;14.50;99.90
7688;DHT22;30781;48.154;11.554;2022-10-16T00:29:11;14.50;99.90
7688;DHT22;30781;48.154;11.554;2022-10-16T00:31:39;14.50;99.90
7688;DHT22;30781;48.154;11.554;2022-10-16T00:34:06;14.50;99.90
7688;DHT22;30781;48.154;11.554;2022-10-16T00:36:34;14.50;99.90
7688;DHT22;30781;48.154;11.554;2022-10-16T00:39:03;14.40;99.90
7688;DHT22;30781;48.154;11.554;2022-10-16T00:41:31;14.40;99.90
7688;DHT22;30781;48.154;11.554;2022-10-16T00:43:59;14.40;99.90
7688;DHT22;30781;48.154;11.554;2022-10-16T00:46:38;14.40;99.90
7688;DHT22;30781;48.154;11.554;2022-10-16T00:49:09;14.30;99.90
7688;DHT22;30781;48.154;11.554;2022-10-16T00:51:41;14.30;99.90
7688;DHT22;30781;48.154;11.554;2022-10-16T00:54:14;14.30;99.90
7688;DHT22;30781;48.154;11.554;2022-10-16T00:56:43;14.30;99.90
7688;DHT22;30781;48.154;11.554;2022-10-16T00:59:20;14.30;99.90
7688;DHT22;30781;48.154;11.554;2022-10-16T01:01:50;14.30;99.90
7688;DHT22;30781;48.154;11.554;2022-10-16T01:04:20;14.30;99.90
7688;DHT22;30781;48.154;11.554;2022-10-16T01:06:56;14.30;99.90
7688;DHT22;30781;48.154;11.554;2022-10-16T01:09:34;14.30;99.90
7688;DHT22;30781;48.154;11.554;2022-10-16T01:12:08;14.30;99.90
7688;DHT22;30781;48.154;11.554;2022-10-16T01:14:43;14.30;99.90
7688;DHT22;30781;48.154;11.554;2022-10-16T01:17:17;14.30;99.90
7688;DHT22;30781;48.154;11.554;2022-10-16T01:20:01;14.30;99.90
7688;DHT22;30781;48.154;11.554;2022-10-16T01:22:38;14.30;99.90
7688;DHT22;30781;48.154;11.554;2022-10-16T01:25:14;14.30;99.90
7688;DHT22;30781;48.154;11.554;2022-10-16T01:27:46;14.30;99.90
7688;DHT22;30781;48.154;11.554;2022-10-16T01:30:18;14.30;99.90
7688;DHT22;30781;48.154;11.554;2022-10-16T01:32:56;14.30;99.90
7688;DHT22;30781;48.154;11.554;2022-10-16T01:35:32;14.30;99.90
7688;DHT22;30781;48.154;11.554;2022-10-16T01:38:04;14.30;99.90
7688;DHT22;30781;48.154;11.554;2022-10-16T01:40:36;14.30;99.90
7688;DHT22;30781;48.154;11.554;2022-10-16T01:43:08;14.30;99.90
7688;DHT22;30781;48.154;11.554;2022-10-16T01:45:38;14.30;99.90
7688;DHT22;30781;48.154;11.554;2022-10-16T01:48:07;14.30;99.90
7688;DHT22;30781;48.154;11.554;2022-10-16T01:50:39;14.30;99.90
7688;DHT22;30781;48.154;11.554;2022-10-16T01:53:13;14.30;99.90
7688;DHT22;30781;48.154;11.554;2022-10-16T01:55:45;14.30;99.90
7688;DHT22;30781;48.154;11.554;2022-10-16T01:58:15;14.30;99.90
7688;DHT22;30781;48.154;11.554;2022-10-16T02:00:52;14.40;99.90
7688;DHT22;30781;48.154;11.554;2022-10-16T02:03:21;14.30;99.90
7688;DHT22;30781;48.154;11.554;2022-10-16T02:05:51;14.40;99.90
7688;DHT22;30781;48.154;11.554;2022-10-16T02:08:20;14.40;99.90
7688;DHT22;30781;48.154;11.554;2022-10-16T02:10:48;14.40;99.90
7688;DHT22;30781;48.154;11.554;2022-10-16T02:13:23;14.40;99.90
7688;DHT22;30781;48.154;11.554;2022-10-16T02:15:53;14.40;99.90
7688;DHT22;30781;48.154;11.554;2022-10-16T02:18:20;14.30;99.90
7688;DHT22;30781;48.154;11.554;2022-10-16T02:20:53;14.40;99.90
7688;DHT22;30781;48.154;11.554;2022-10-16T02:23:34;14.30;99.90
7688;DHT22;30781;48.154;11.554;2022-10-16T02:26:04;14.30;99.90
7688;DHT22;30781;48.154;11.554;2022-10-16T02:28:40;14.30;99.90
7688;DHT22;30781;48.154;11.554;2022-10-16T02:31:10;14.30;99.90
7688;DHT22;30781;48.154;11.554;2022-10-16T02:33:39;14.30;99.90
7688;DHT22;30781;48.154;11.554;2022-10-16T02:36:10;14.20;99.90
7688;DHT22;30781;48.154;11.554;2022-10-16T02:38:38;14.20;99.90
7688;DHT22;30781;48.154;11.554;2022-10-16T02:41:07;14.20;99.90
7688;DHT22;30781;48.154;11.554;2022-10-16T02:43:36;14.20;99.90
7688;DHT22;30781;48.154;11.554;2022-10-16T02:46:03;14.20;99.90
7688;DHT22;30781;48.154;11.554;2022-10-16T02:48:34;14.20;99.90
7688;DHT22;30781;48.154;11.554;2022-10-16T02:51:01;14.20;99.90
7688;DHT22;30781;48.154;11.554;2022-10-16T02:53:31;14.10;99.90
7688;DHT22;30781;48.154;11.554;2022-10-16T02:56:01;14.10;99.90
7688;DHT22;30781;48.154;11.554;2022-10-16T02:58:31;14.10;99.90
7688;DHT22;30781;48.154;11.554;2022-10-16T03:00:59;14.10;99.90
7688;DHT22;30781;48.154;11.554;2022-10-16T03:03:32;14.10;99.90
7688;DHT22;30781;48.154;11.554;2022-10-16T03:05:59;14.10;99.90
7688;DHT22;30781;48.154;11.554;2022-10-16T03:08:33;14.00;99.90
7688;DHT22;30781;48.154;11.554;2022-10-16T03:11:00;14.00;99.90
7688;DHT22;30781;48.154;11.554;2022-10-16T03:13:32;14.00;99.90
7688;DHT22;30781;48.154;11.554;2022-10-16T03:16:03;14.00;99.90
7688;DHT22;30781;48.154;11.554;2022-10-16T03:18:34;13.90;99.90
7688;DHT22;30781;48.154;11.554;2022-10-16T03:21:04;13.90;99.90
7688;DHT22;30781;48.154;11.554;2022-10-16T03:23:31;13.90;99.90
7688;DHT22;30781;48.154;11.554;2022-10-16T03:25:58;13.90;99.90
7688;DHT22;30781;48.154;11.554;2022-10-16T03:28:28;13.90;99.90
7688;DHT22;30781;48.154;11.554;2022-10-16T03:30:56;13.80;99.90
7688;DHT22;30781;48.154;11.554;2022-10-16T03:33:25;13.80;99.90
7688;DHT22;30781;48.154;11.554;2022-10-16T03:35:59;13.90;99.90
7688;DHT22;30781;48.154;11.554;2022-10-16T03:38:26;13.90;99.90
7688;DHT22;30781;48.154;11.554;2022-10-16T03:40:56;13.90;99.90
7688;DHT22;30781;48.154;11.554;2022-10-16T03:43:24;14.00;99.90
7688;DHT22;30781;48.154;11.554;2022-10-16T03:45:51;14.00;99.90
7688;DHT22;30781;48.154;11.554;2022-10-16T03:48:20;14.10;99.90
7688;DHT22;30781;48.154;11.554;2022-10-16T03:50:49;14.10;99.90
7688;DHT22;30781;48.154;11.554;2022-10-16T03:53:17;14.20;99.90
7688;DHT22;30781;48.154;11.554;2022-10-16T03:55:47;14.20;99.90
7688;DHT22;30781;48.154;11.554;2022-10-16T03:58:23;14.30;99.90
7688;DHT22;30781;48.154;11.554;2022-10-16T04:00:51;14.30;99.90
7688;DHT22;30781;48.154;11.554;2022-10-16T04:03:18;14.40;99.90
7688;DHT22;30781;48.154;11.554;2022-10-16T04:05:51;14.40;99.90
7688;DHT22;30781;48.154;11.554;2022-10-16T04:08:19;14.50;99.90
7688;DHT22;30781;48.154;11.554;2022-10-16T04:10:49;14.50;99.90
7688;DHT22;30781;48.154;11.554;2022-10-16T04:13:18;14.50;99.90
7688;DHT22;30781;48.154;11.554;2022-10-16T04:15:45;14.60;99.90
7688;DHT22;30781;48.154;11.554;2022-10-16T04:18:13;14.60;99.90
7688;DHT22;30781;48.154;11.554;2022-10-16T04:20:43;14.60;99.90
7688;DHT22;30781;48.154;11.554;2022-10-16T04:23:16;14.70;99.90
7688;DHT22;30781;48.154;11.554;2022-10-16T04:25:43;14.70;99.90
7688;DHT22;30781;48.154;11.554;2022-10-16T04:28:12;14.70;99.90
7688;DHT22;30781;48.154;11.554;2022-10-16T04:30:41;14.70;99.90
7688;DHT22;30781;48.154;11.554;2022-10-16T04:33:16;14.80;99.90
7688;DHT22;30781;48.154;11.554;2022-10-16T04:35:43;14.80;99.90
7688;DHT22;30781;48.154;11.554;2022-10-16T04:38:19;14.80;99.90
7688;DHT22;30781;48.154;11.554;2022-10-16T04:40:46;14.80;99.90
7688;DHT22;30781;48.154;11.554;2022-10-16T04:43:16;14.80;99.90
7688;DHT22;30781;48.154;11.554;2022-10-16T04:45:46;14.90;99.90
7688;DHT22;30781;48.154;11.554;2022-10-16T04:48:16;14.90;99.90
7688;DHT22;30781;48.154;11.554;2022-10-16T04:50:43;14.90;99.90
7688;DHT22;30781;48.154;11.554;2022-10-16T04:53:18;14.90;99.90
7688;DHT22;30781;48.154;11.554;2022-10-16T04:55:50;15.00;99.90
7688;DHT22;30781;48.154;11.554;2022-10-16T04:58:20;15.00;99.90
7688;DHT22;30781;48.154;11.554;2022-10-16T05:00:47;15.00;99.90
7688;DHT22;30781;48.154;11.554;2022-10-16T05:03:17;14.90;99.90
7688;DHT22;30781;48.154;11.554;2022-10-16T05:05:45;15.00;99.90
7688;DHT22;30781;48.154;11.554;2022-10-16T05:08:14;15.00;99.90
7688;DHT22;30781;48.154;11.554;2022-10-16T05:10:44;15.00;99.90
7688;DHT22;30781;48.154;11.554;2022-10-16T05:13:14;15.00;99.90
7688;DHT22;30781;48.154;11.554;2022-10-16T05:15:41;15.00;99.90
7688;DHT22;30781;48.154;11.554;2022-10-16T05:18:09;15.00;99.90
7688;DHT22;30781;48.154;11.554;2022-10-16T05:20:41;15.00;99.90
7688;DHT22;30781;48.154;11.554;2022-10-16T05:23:08;15.00;99.90
7688;DHT22;30781;48.154;11.554;2022-10-16T05:25:38;15.00;99.90
7688;DHT22;30781;48.154;11.554;2022-10-16T05:28:06;15.00;99.90
7688;DHT22;30781;48.154;11.554;2022-10-16T05:30:37;15.00;99.90
7688;DHT22;30781;48.154;11.554;2022-10-16T05:33:07;15.10;99.90
7688;DHT22;30781;48.154;11.554;2022-10-16T05:35:35;15.10;99.90
7688;DHT22;30781;48.154;11.554;2022-10-16T05:38:06;15.10;99.90
7688;DHT22;30781;48.154;11.554;2022-10-16T05:40:33;15.10;99.90
7688;DHT22;30781;48.154;11.554;2022-10-16T05:43:00;15.10;99.90
7688;DHT22;30781;48.154;11.554;2022-10-16T05:45:32;15.10;99.90
7688;DHT22;30781;48.154;11.554;2022-10-16T05:48:02;15.10;99.90
7688;DHT22;30781;48.154;11.554;2022-10-16T05:50:31;15.10;99.90
7688;DHT22;30781;48.154;11.554;2022-10-16T05:52:59;15.10;99.90
7688;DHT22;30781;48.154;11.554;2022-10-16T05:55:27;15.20;99.90
7688;DHT22;30781;48.154;11.554;2022-10-16T05:57:54;15.20;99.90
7688;DHT22;30781;48.154;11.554;2022-10-16T06:00:22;15.20;99.90
7688;DHT22;30781;48.154;11.554;2022-10-16T06:02:54;15.20;99.90
7688;DHT22;30781;48.154;11.554;2022-10-16T06:05:28;15.10;99.90
7688;DHT22;30781;48.154;11.554;2022-10-16T06:07:55;15.10;99.90
7688;DHT22;30781;48.154;11.554;2022-10-16T06:10:28;15.10;99.90
7688;DHT22;30781;48.154;11.554;2022-10-16T06:13:04;15.10;99.90
7688;DHT22;30781;48.154;11.554;2022-10-16T06:15:34;15.00;99.90
7688;DHT22;30781;48.154;11.554;2022-10-16T06:18:06;15.00;99.90
7688;DHT22;30781;48.154;11.554;2022-10-16T06:20:33;15.00;99.90
7688;DHT22;30781;48.154;11.554;2022-10-16T06:23:00;15.00;99.90
7688;DHT22;30781;48.154;11.554;2022-10-16T06:25:32;15.00;99.90
7688;DHT22;30781;48.154;11.554;2022-10-16T06:28:00;15.00;99.90
7688;DHT22;30781;48.154;11.554;2022-10-16T06:30:27;15.00;99.90
7688;DHT22;30781;48.154;11.554;2022-10-16T06:32:54;15.00;99.90
7688;DHT22;30781;48.154;11.554;2022-10-16T06:35:25;15.00;99.90
7688;DHT22;30781;48.154;11.554;2022-10-16T06:37:55;15.10;99.90
7688;DHT22;30781;48.154;11.554;2022-10-16T06:40:25;15.20;99.90
7688;DHT22;30781;48.154;11.554;2022-10-16T06:42:56;15.30;99.90
7688;DHT22;30781;48.154;11.554;2022-10-16T06:45:23;15.30;99.90
7688;DHT22;30781;48.154;11.554;2022-10-16T06:47:51;15.40;99.90
7688;DHT22;30781;48.154;11.554;2022-10-16T06:50:22;15.40;99.90
7688;DHT22;30781;48.154;11.554;2022-10-16T06:52:53;15.40;99.90
7688;DHT22;30781;48.154;11.554;2022-10-16T06:55:20;15.50;99.90
7688;DHT22;30781;48.154;11.554;2022-10-16T06:57:47;15.50;99.90
7688;DHT22;30781;48.154;11.554;2022-10-16T07:00:17;15.50;99.90
7688;DHT22;30781;48.154;11.554;2022-10-16T07:02:45;15.50;99.90
7688;DHT22;30781;48.154;11.554;2022-10-16T07:05:14;15.50;99.90
7688;DHT22;30781;48.154;11.554;2022-10-16T07:07:42;15.60;99.90
7688;DHT22;30781;48.154;11.554;2022-10-16T07:10:11;15.60;99.90
7688;DHT22;30781;48.154;11.554;2022-10-16T07:12:46;15.70;99.90
7688;DHT22;30781;48.154;11.554;2022-10-16T07:15:14;15.80;99.90
7688;DHT22;30781;48.154;11.554;2022-10-16T07:17:41;15.80;99.90
7688;DHT22;30781;48.154;11.554;2022-10-16T07:20:09;16.00;99.90
7688;DHT22;30781;48.154;11.554;2022-10-16T07:22:37;16.30;99.90
7688;DHT22;30781;48.154;11.554;2022-10-16T07:25:07;16.60;99.90
7688;DHT22;30781;48.154;11.554;2022-10-16T07:27:39;16.80;99.90
7688;DHT22;30781;48.154;11.554;2022-10-16T07:30:07;17.10;99.90
7688;DHT22;30781;48.154;11.554;2022-10-16T07:32:35;17.30;99.90
7688;DHT22;30781;48.154;11.554;2022-10-16T07:35:11;17.40;99.70
7688;DHT22;30781;48.154;11.554;2022-10-16T07:37:38;17.50;99.50
7688;DHT22;30781;48.154;11.554;2022-10-16T07:40:06;17.60;99.60
7688;DHT22;30781;48.154;11.554;2022-10-16T07:42:34;17.80;99.20
7688;DHT22;30781;48.154;11.554;2022-10-16T07:45:03;18.00;98.90
7688;DHT22;30781;48.154;11.554;2022-10-16T07:47:31;18.20;98.50
7688;DHT22;30781;48.154;11.554;2022-10-16T07:50:03;18.30;98.10
7688;DHT22;30781;48.154;11.554;2022-10-16T07:52:30;18.40;97.80
7688;DHT22;30781;48.154;11.554;2022-10-16T07:54:57;18.50;97.90
7688;DHT22;30781;48.154;11.554;2022-10-16T07:57:29;18.60;97.90
7688;DHT22;30781;48.154;11.554;2022-10-16T07:59:57;18.90;97.70
7688;DHT22;30781;48.154;11.554;2022-10-16T08:02:25;19.10;97.20
7688;DHT22;30781;48.154;11.554;2022-10-16T08:04:52;19.30;97.20
7688;DHT22;30781;48.154;11.554;2022-10-16T08:07:21;19.50;97.10
7688;DHT22;30781;48.154;11.554;2022-10-16T08:09:51;19.80;96.60
7688;DHT22;30781;48.154;11.554;2022-10-16T08:12:24;20.10;96.40
7688;DHT22;30781;48.154;11.554;2022-10-16T08:14:53;20.40;96.10
7688;DHT22;30781;48.154;11.554;2022-10-16T08:17:20;20.70;95.40
7688;DHT22;30781;48.154;11.554;2022-10-16T08:19:52;21.00;94.90
7688;DHT22;30781;48.154;11.554;2022-10-16T08:22:19;21.20;94.00
7688;DHT22;30781;48.154;11.554;2022-10-16T08:24:46;21.40;92.80
7688;DHT22;30781;48.154;11.554;2022-10-16T08:27:14;21.50;92.20
7688;DHT22;30781;48.154;11.554;2022-10-16T08:29:45;21.60;92.10
7688;DHT22;30781;48.154;11.554;2022-10-16T08:32:13;21.70;91.30
7688;DHT22;30781;48.154;11.554;2022-10-16T08:34:40;21.60;90.80
7688;DHT22;30781;48.154;11.554;2022-10-16T08:37:09;21.40;90.50
7688;DHT22;30781;48.154;11.554;2022-10-16T08:39:39;21.30;90.70
7688;DHT22;30781;48.154;11.554;2022-10-16T08:42:19;21.10;90.80
7688;DHT22;30781;48.154;11.554;2022-10-16T08:45:23;20.90;90.60
7688;DHT22;30781;48.154;11.554;2022-10-16T08:48:06;20.70;91.00
7688;DHT22;30781;48.154;11.554;2022-10-16T08:50:38;20.50;91.00
7688;DHT22;30781;48.154;11.554;2022-10-16T08:53:13;20.40;90.90
7688;DHT22;30781;48.154;11.554;2022-10-16T08:55:46;20.30;90.90
7688;DHT22;30781;48.154;11.554;2022-10-16T08:58:17;20.30;90.70
7688;DHT22;30781;48.154;11.554;2022-10-16T09:00:50;20.10;90.80
7688;DHT22;30781;48.154;11.554;2022-10-16T09:03:26;20.10;90.80
7688;DHT22;30781;48.154;11.554;2022-10-16T09:08:58;20.10;91.00
7688;DHT22;30781;48.154;11.554;2022-10-16T09:11:39;20.00;90.70
7688;DHT22;30781;48.154;11.554;2022-10-16T09:14:29;20.00;90.80
7688;DHT22;30781;48.154;11.554;2022-10-16T09:17:12;20.00;91.00
7688;DHT22;30781;48.154;11.554;2022-10-16T09:19:48;20.10;91.10
7688;DHT22;30781;48.154;11.554;2022-10-16T09:22:25;20.10;91.00
7688;DHT22;30781;48.154;11.554;2022-10-16T09:24:59;20.10;90.70
7688;DHT22;30781;48.154;11.554;2022-10-16T09:27:27;20.10;90.70
7688;DHT22;30781;48.154;11.554;2022-10-16T09:29:54;20.20;90.60
7688;DHT22;30781;48.154;11.554;2022-10-16T09:32:22;20.20;90.60
7688;DHT22;30781;48.154;11.554;2022-10-16T09:34:52;20.30;90.20
7688;DHT22;30781;48.154;11.554;2022-10-16T09:37:27;20.30;90.50
7688;DHT22;30781;48.154;11.554;2022-10-16T09:39:56;20.40;90.60
7688;DHT22;30781;48.154;11.554;2022-10-16T09:42:27;20.40;90.10
7688;DHT22;30781;48.154;11.554;2022-10-16T09:44:59;20.50;90.10
7688;DHT22;30781;48.154;11.554;2022-10-16T09:47:40;20.50;89.80
7688;DHT22;30781;48.154;11.554;2022-10-16T09:50:21;20.60;90.00
7688;DHT22;30781;48.154;11.554;2022-10-16T09:52:49;20.60;89.10
7688;DHT22;30781;48.154;11.554;2022-10-16T09:55:19;20.60;89.20
7688;DHT22;30781;48.154;11.554;2022-10-16T09:57:49;20.70;88.80
7688;DHT22;30781;48.154;11.554;2022-10-16T10:00:24;20.80;88.50
7688;DHT22;30781;48.154;11.554;2022-10-16T10:02:54;20.80;88.90
7688;DHT22;30781;48.154;11.554;2022-10-16T10:05:24;20.90;88.60
7688;DHT22;30781;48.154;11.554;2022-10-16T10:07:58;20.90;88.20
7688;DHT22;30781;48.154;11.554;2022-10-16T10:10:29;21.00;88.40
7688;DHT22;30781;48.154;11.554;2022-10-16T10:12:57;21.00;88.40
7688;DHT22;30781;48.154;11.554;2022-10-16T10:15:28;21.10;88.30
7688;DHT22;30781;48.154;11.554;2022-10-16T10:18:00;21.20;87.90
7688;DHT22;30781;48.154;11.554;2022-10-16T10:20:35;21.20;87.90
7688;DHT22;30781;48.154;11.554;2022-10-16T10:23:21;21.20;87.50
7688;DHT22;30781;48.154;11.554;2022-10-16T10:25:55;21.30;86.30
7688;DHT22;30781;48.154;11.554;2022-10-16T10:28:41;21.40;84.90
7688;DHT22;30781;48.154;11.554;2022-10-16T10:31:22;21.40;84.40
7688;DHT22;30781;48.154;11.554;2022-10-16T10:33:55;21.60;84.60
7688;DHT22;30781;48.154;11.554;2022-10-16T10:36:29;21.60;83.70
7688;DHT22;30781;48.154;11.554;2022-10-16T10:38:59;21.70;83.90
7688;DHT22;30781;48.154;11.554;2022-10-16T10:42:00;21.70;82.80
7688;DHT22;30781;48.154;11.554;2022-10-16T10:44:43;21.80;83.00
7688;DHT22;30781;48.154;11.554;2022-10-16T10:47:23;21.90;82.20
7688;DHT22;30781;48.154;11.554;2022-10-16T10:50:02;22.00;81.50
7688;DHT22;30781;48.154;11.554;2022-10-16T10:52:42;22.00;80.70
7688;DHT22;30781;48.154;11.554;2022-10-16T10:55:23;22.10;79.70
7688;DHT22;30781;48.154;11.554;2022-10-16T11:00:57;22.20;78.60
7688;DHT22;30781;48.154;11.554;2022-10-16T11:03:41;22.30;78.70
7688;DHT22;30781;48.154;11.554;2022-10-16T11:06:16;22.30;77.20
7688;DHT22;30781;48.154;11.554;2022-10-16T11:08:47;22.40;76.70
7688;DHT22;30781;48.154;11.554;2022-10-16T11:11:20;22.40;76.60
7688;DHT22;30781;48.154;11.554;2022-10-16T11:13:57;22.50;75.90
7688;DHT22;30781;48.154;11.554;2022-10-16T11:16:30;22.50;76.00
7688;DHT22;30781;48.154;11.554;2022-10-16T11:19:10;22.50;75.10
7688;DHT22;30781;48.154;11.554;2022-10-16T11:21:44;22.60;75.70
7688;DHT22;30781;48.154;11.554;2022-10-16T11:24:19;22.60;73.30
7688;DHT22;30781;48.154;11.554;2022-10-16T11:26:50;22.60;73.60
7688;DHT22;30781;48.154;11.554;2022-10-16T11:29:25;22.70;73.80
7688;DHT22;30781;48.154;11.554;2022-10-16T11:31:58;22.80;72.60
7688;DHT22;30781;48.154;11.554;2022-10-16T11:34:34;22.80;72.40
7688;DHT22;30781;48.154;11.554;2022-10-16T11:37:08;22.90;72.20
7688;DHT22;30781;48.154;11.554;2022-10-16T11:39:40;22.90;69.90
7688;DHT22;30781;48.154;11.554;2022-10-16T11:42:11;23.00;68.10
7688;DHT22;30781;48.154;11.554;2022-10-16T11:44:51;23.00;68.20
7688;DHT22;30781;48.154;11.554;2022-10-16T11:47:27;23.10;67.90
7688;DHT22;30781;48.154;11.554;2022-10-16T11:50:01;23.10;67.10
7688;DHT22;30781;48.154;11.554;2022-10-16T11:52:35;23.20;66.90
7688;DHT22;30781;48.154;11.554;2022-10-16T11:55:15;23.20;67.90
7688;DHT22;30781;48.154;11.554;2022-10-16T11:57:46;23.30;68.30
7688;DHT22;30781;48.154;11.554;2022-10-16T12:00:21;23.40;66.30
7688;DHT22;30781;48.154;11.554;2022-10-16T12:02:58;23.50;65.80
7688;DHT22;30781;48.154;11.554;2022-10-16T12:05:33;23.50;65.10
7688;DHT22;30781;48.154;11.554;2022-10-16T12:08:08;23.60;65.20
7688;DHT22;30781;48.154;11.554;2022-10-16T12:10:40;23.60;65.00
7688;DHT22;30781;48.154;11.554;2022-10-16T12:13:35;23.60;65.50
7688;DHT22;30781;48.154;11.554;2022-10-16T12:16:21;23.70;66.30
7688;DHT22;30781;48.154;11.554;2022-10-16T12:18:50;23.70;65.60
7688;DHT22;30781;48.154;11.554;2022-10-16T12:21:31;23.70;64.90
7688;DHT22;30781;48.154;11.554;2022-10-16T12:23:59;23.70;65.40
7688;DHT22;30781;48.154;11.554;2022-10-16T12:26:34;23.70;66.00
7688;DHT22;30781;48.154;11.554;2022-10-16T12:29:14;23.80;65.90
7688;DHT22;30781;48.154;11.554;2022-10-16T12:31:48;23.80;66.40
7688;DHT22;30781;48.154;11.554;2022-10-16T12:34:26;23.90;66.50
7688;DHT22;30781;48.154;11.554;2022-10-16T12:37:07;23.90;66.80
7688;DHT22;30781;48.154;11.554;2022-10-16T12:39:38;23.90;66.90
7688;DHT22;30781;48.154;11.554;2022-10-16T12:42:19;23.90;66.40
7688;DHT22;30781;48.154;11.554;2022-10-16T12:44:49;24.00;66.40
7688;DHT22;30781;48.154;11.554;2022-10-16T12:47:23;24.00;66.30
7688;DHT22;30781;48.154;11.554;2022-10-16T12:49:52;24.00;66.30
7688;DHT22;30781;48.154;11.554;2022-10-16T12:52:28;24.10;66.00
7688;DHT22;30781;48.154;11.554;2022-10-16T12:54:59;24.10;65.20
7688;DHT22;30781;48.154;11.554;2022-10-16T12:57:45;24.10;65.00
7688;DHT22;30781;48.154;11.554;2022-10-16T13:00:26;24.10;64.90
7688;DHT22;30781;48.154;11.554;2022-10-16T13:03:27;24.10;64.80
7688;DHT22;30781;48.154;11.554;2022-10-16T13:06:08;24.10;65.60
7688;DHT22;30781;48.154;11.554;2022-10-16T13:08:50;24.00;64.70
7688;DHT22;30781;48.154;11.554;2022-10-16T13:11:29;24.10;64.40
7688;DHT22;30781;48.154;11.554;2022-10-16T13:17:06;24.10;64.60
7688;DHT22;30781;48.154;11.554;2022-10-16T13:19:46;24.10;64.10
7688;DHT22;30781;48.154;11.554;2022-10-16T13:22:24;24.10;62.70
7688;DHT22;30781;48.154;11.554;2022-10-16T13:25:09;24.10;62.50
7688;DHT22;30781;48.154;11.554;2022-10-16T13:27:50;24.10;62.70
7688;DHT22;30781;48.154;11.554;2022-10-16T13:30:21;24.10;62.10
7688;DHT22;30781;48.154;11.554;2022-10-16T13:32:59;24.10;62.10
7688;DHT22;30781;48.154;11.554;2022-10-16T13:35:32;24.20;60.10
7688;DHT22;30781;48.154;11.554;2022-10-16T13:38:13;24.20;59.90
7688;DHT22;30781;48.154;11.554;2022-10-16T13:40:52;24.20;60.20
7688;DHT22;30781;48.154;11.554;2022-10-16T13:43:33;24.30;59.90
7688;DHT22;30781;48.154;11.554;2022-10-16T13:46:03;24.30;60.10
7688;DHT22;30781;48.154;11.554;2022-10-16T13:48:31;24.30;59.90
7688;DHT22;30781;48.154;11.554;2022-10-16T13:51:06;24.30;59.60
7688;DHT22;30781;48.154;11.554;2022-10-16T13:53:39;24.40;59.10
7688;DHT22;30781;48.154;11.554;2022-10-16T13:56:12;24.40;58.10
7688;DHT22;30781;48.154;11.554;2022-10-16T13:58:45;24.40;58.30
7688;DHT22;30781;48.154;11.554;2022-10-16T14:01:17;24.30;58.00
7688;DHT22;30781;48.154;11.554;2022-10-16T14:03:45;24.30;57.50
7688;DHT22;30781;48.154;11.554;2022-10-16T14:06:17;24.30;57.60
7688;DHT22;30781;48.154;11.554;2022-10-16T14:08:54;24.30;57.60
7688;DHT22;30781;48.154;11.554;2022-10-16T14:11:28;24.30;57.20
7688;DHT22;30781;48.154;11.554;2022-10-16T14:13:56;24.30;56.60
7688;DHT22;30781;48.154;11.554;2022-10-16T14:16:25;24.30;55.90
7688;DHT22;30781;48.154;11.554;2022-10-16T14:18:58;24.50;56.20
7688;DHT22;30781;48.154;11.554;2022-10-16T14:21:27;24.60;55.80
7688;DHT22;30781;48.154;11.554;2022-10-16T14:23:58;24.60;55.90
7688;DHT22;30781;48.154;11.554;2022-10-16T14:26:27;24.70;56.40
7688;DHT22;30781;48.154;11.554;2022-10-16T14:29:12;24.80;56.20
7688;DHT22;30781;48.154;11.554;2022-10-16T14:31:41;24.90;56.60
7688;DHT22;30781;48.154;11.554;2022-10-16T14:34:25;24.90;55.90
7688;DHT22;30781;48.154;11.554;2022-10-16T14:37:01;24.90;55.70
7688;DHT22;30781;48.154;11.554;2022-10-16T14:39:36;24.90;55.20
7688;DHT22;30781;48.154;11.554;2022-10-16T14:42:14;24.80;55.60
7688;DHT22;30781;48.154;11.554;2022-10-16T14:44:46;24.80;55.90
7688;DHT22;30781;48.154;11.554;2022-10-16T14:47:22;24.70;55.70
7688;DHT22;30781;48.154;11.554;2022-10-16T14:49:52;24.70;56.00
7688;DHT22;30781;48.154;11.554;2022-10-16T14:52:23;24.60;55.80
7688;DHT22;30781;48.154;11.554;2022-10-16T14:54:57;24.60;56.00
7688;DHT22;30781;48.154;11.554;2022-10-16T14:57:27;24.50;56.60
7688;DHT22;30781;48.154;11.554;2022-10-16T15:00:00;24.40;57.10
7688;DHT22;30781;48.154;11.554;2022-10-16T15:02:30;24.30;56.60
7688;DHT22;30781;48.154;11.554;2022-10-16T15:05:13;24.20;56.90
7688;DHT22;30781;48.154;11.554;2022-10-16T15:07:50;24.10;56.90
7688;DHT22;30781;48.154;11.554;2022-10-16T15:10:22;24.00;57.50
7688;DHT22;30781;48.154;11.554;2022-10-16T15:12:55;24.00;57.80
7688;DHT22;30781;48.154;11.554;2022-10-16T15:15:43;23.90;58.00
7688;DHT22;30781;48.154;11.554;2022-10-16T15:18:12;23.90;58.80
7688;DHT22;30781;48.154;11.554;2022-10-16T15:20:40;23.70;59.10
7688;DHT22;30781;48.154;11.554;2022-10-16T15:23:14;23.70;60.00
7688;DHT22;30781;48.154;11.554;2022-10-16T15:25:45;23.60;61.00
7688;DHT22;30781;48.154;11.554;2022-10-16T15:28:14;23.60;62.20
7688;DHT22;30781;48.154;11.554;2022-10-16T15:30:43;23.50;63.10
7688;DHT22;30781;48.154;11.554;2022-10-16T15:33:15;23.40;63.60
7688;DHT22;30781;48.154;11.554;2022-10-16T15:35:46;23.40;64.40
7688;DHT22;30781;48.154;11.554;2022-10-16T15:38:21;23.30;65.00
7688;DHT22;30781;48.154;11.554;2022-10-16T15:40:49;23.20;65.40
7688;DHT22;30781;48.154;11.554;2022-10-16T15:43:22;23.10;66.00
7688;DHT22;30781;48.154;11.554;2022-10-16T15:45:59;23.10;66.60
7688;DHT22;30781;48.154;11.554;2022-10-16T15:48:30;23.00;67.00
7688;DHT22;30781;48.154;11.554;2022-10-16T15:50:57;22.90;67.40
7688;DHT22;30781;48.154;11.554;2022-10-16T15:53:29;22.90;67.90
7688;DHT22;30781;48.154;11.554;2022-10-16T15:55:57;22.80;68.70
7688;DHT22;30781;48.154;11.554;2022-10-16T15:58:34;22.80;69.20
7688;DHT22;30781;48.154;11.554;2022-10-16T16:01:03;22.70;69.50
7688;DHT22;30781;48.154;11.554;2022-10-16T16:03:33;22.60;70.10
7688;DHT22;30781;48.154;11.554;2022-10-16T16:06:04;22.50;70.50
7688;DHT22;30781;48.154;11.554;2022-10-16T16:08:37;22.50;71.00
7688;DHT22;30781;48.154;11.554;2022-10-16T16:11:07;22.40;71.40